EST,Max TemperatureF,Mean TemperatureF,Min TemperatureF,Max Dew PointF,MeanDew PointF,Min DewpointF,Max Humidity, Mean Humidity, Min Humidity, Max Sea Level PressureIn, Mean Sea Level PressureIn, Min Sea Level PressureIn, Max VisibilityMiles, Mean VisibilityMiles, Min VisibilityMiles, Max Wind SpeedMPH, Mean Wind SpeedMPH, Max Gust SpeedMPH,PrecipitationIn, CloudCover, Events, WindDirDegrees
2013-11-1,78,76,73,72,70,66,94,84,65,30.00,29.87,29.77,10,9,2,20,10,26,0.03,4,Rain,210
2013-11-2,73,64,55,70,59,50,100,82,46,29.96,29.83,29.77,10,9,2,14,4,17,0.70,3,Rain,289
2013-11-3,68,59,50,52,42,34,94,59,30,30.30,30.14,29.96,10,10,10,15,5,20,0.00,0,,358
2013-11-4,66,58,51,46,42,34,76,57,30,30.42,30.38,30.28,10,10,10,18,10,24,0.00,0,,31
2013-11-5,66,56,46,59,50,39,94,81,62,30.42,30.37,30.32,10,9,1,17,12,21,0.01,4,Rain,5
2013-11-6,75,66,57,64,61,55,94,83,65,30.31,30.21,30.10,10,10,5,13,8,18,0.01,5,,34
2013-11-7,78,70,62,64,63,59,100,86,61,30.09,30.02,29.95,10,9,4,15,2,18,0.00,4,,276
2013-11-8,64,52,41,57,36,28,87,54,27,30.31,30.22,30.05,10,10,10,18,11,26,0.00,1,,12
2013-11-9,64,53,42,52,45,36,94,70,48,30.34,30.29,30.24,10,10,10,10,3,,0.00,0,,18
2013-11-10,73,62,48,55,50,45,94,73,38,30.26,30.20,30.15,10,10,10,8,1,,0.00,1,,313
2013-11-11,68,58,48,52,47,37,93,68,52,30.29,30.22,30.17,10,10,10,13,4,17,0.00,1,,34
2013-11-12,73,58,44,54,45,30,93,62,31,30.32,30.12,30.02,10,10,7,29,4,39,0.00,2,,329
2013-11-13,51,42,33,32,25,16,81,53,26,30.52,30.45,30.32,10,10,10,23,15,40,0.16,2,Thunderstorm,8
2013-11-14,62,48,33,48,37,27,93,66,44,30.50,30.43,30.32,10,10,10,10,5,,0.00,0,,18
2013-11-15,66,58,51,61,56,48,94,86,73,30.32,30.25,30.16,10,9,1,9,5,,0.00,5,,21
2013-11-16,75,67,59,63,60,57,100,86,61,30.23,30.19,30.16,10,8,1,10,2,,0.01,3,,70
2013-11-17,75,67,59,70,64,57,100,91,78,30.19,30.09,30.01,10,8,2,8,1,,0.00,5,Rain,126
2013-11-18,82,73,64,70,67,48,94,82,52,30.01,29.91,29.85,10,9,3,12,7,17,0.00,4,,245
2013-11-19,64,56,48,46,36,32,76,47,32,30.19,30.07,29.92,10,10,10,20,10,25,0.00,0,,27
2013-11-20,59,52,46,48,43,36,76,66,58,30.32,30.26,30.18,10,10,10,16,11,22,0.00,5,,21
2013-11-21,71,62,53,61,54,46,94,80,60,30.38,30.34,30.31,10,10,7,14,10,17,0.00,6,,22
2013-11-22,73,66,59,66,62,57,100,89,69,30.35,30.26,30.17,10,7,0,9,2,,0.00,6,Fog,95
2013-11-23,75,67,59,66,61,52,100,85,69,30.16,30.09,30.01,10,8,0,13,3,20,0.00,5,Fog-Rain,312
2013-11-24,60,48,35,50,23,14,68,41,25,30.52,30.35,30.11,10,10,10,23,13,30,0.00,0,,13
2013-11-25,51,42,33,50,29,10,94,58,33,30.51,30.43,30.25,10,10,5,20,12,26,0.00,3,,32
2013-11-26,71,60,48,70,59,45,100,92,83,30.24,29.94,29.63,10,5,0,23,9,31,0.80,7,Rain,146
2013-11-27,68,54,39,66,49,34,100,85,71,30.22,29.79,29.54,10,8,1,24,14,36,0.08,6,Rain,260
2013-11-28,50,42,33,32,27,21,93,67,32,30.50,30.40,30.22,10,10,10,13,5,22,0.00,0,,14
2013-11-29,59,46,33,43,34,28,93,67,39,30.53,30.49,30.45,10,10,10,13,3,,0.00,0,,14
2013-11-30,60,50,39,43,37,32,81,65,45,30.53,30.44,30.32,10,10,10,15,10,22,0.00,3,,8